createdAt,value
2023-09-03T00:00:39.902Z,7.43
2023-09-03T00:03:09.110Z,6.43
2023-09-03T00:05:37.881Z,6.63
2023-09-03T00:08:06.612Z,5.90
2023-09-03T00:10:37.102Z,5.55
2023-09-03T00:13:07.249Z,7.55
2023-09-03T00:15:40.990Z,6.70
2023-09-03T00:18:14.141Z,6.75
2023-09-03T00:20:43.648Z,7.57
2023-09-03T00:23:13.351Z,7.97
2023-09-03T00:25:44.580Z,6.28
2023-09-03T00:28:15.906Z,7.43
2023-09-03T00:30:45.068Z,6.45
2023-09-03T00:33:13.695Z,7.65
2023-09-03T00:35:47.193Z,9.52
2023-09-03T00:38:16.434Z,9.82
2023-09-03T00:40:45.059Z,9.38
2023-09-03T00:43:15.203Z,7.55
2023-09-03T00:45:45.033Z,8.02
2023-09-03T00:48:17.100Z,7.25
2023-09-03T00:50:47.858Z,6.75
2023-09-03T00:53:19.132Z,6.55
2023-09-03T00:55:53.026Z,6.93
2023-09-03T00:58:24.215Z,9.05
2023-09-03T01:00:57.344Z,6.53
2023-09-03T01:03:27.608Z,9.43
2023-09-03T01:05:56.427Z,5.95
2023-09-03T01:08:27.375Z,6.50
2023-09-03T01:11:05.470Z,6.85
2023-09-03T01:13:43.061Z,6.13
2023-09-03T01:16:20.705Z,6.53
2023-09-03T01:18:50.340Z,6.28
2023-09-03T01:21:38.463Z,5.75
2023-09-03T01:24:25.112Z,5.72
2023-09-03T01:27:06.410Z,6.43
2023-09-03T01:29:42.525Z,5.65
2023-09-03T01:32:12.488Z,5.70
2023-09-03T01:34:45.349Z,7.78
2023-09-03T01:37:15.224Z,7.60
2023-09-03T01:39:47.424Z,8.40
2023-09-03T01:42:16.044Z,7.97
2023-09-03T01:44:46.112Z,6.60
2023-09-03T01:47:24.252Z,6.28
2023-09-03T01:49:57.884Z,9.95
2023-09-03T01:52:39.058Z,7.25
2023-09-03T01:55:12.318Z,7.28
2023-09-03T01:57:46.200Z,6.55
2023-09-03T02:00:18.476Z,7.28
2023-09-03T02:02:49.348Z,9.32
2023-09-03T02:05:18.215Z,7.78
2023-09-03T02:07:46.914Z,7.00
2023-09-03T02:10:17.667Z,6.78
2023-09-03T02:12:49.586Z,8.00
2023-09-03T02:15:19.656Z,8.13
2023-09-03T02:17:49.795Z,7.03
2023-09-03T02:20:19.497Z,8.65
2023-09-03T02:22:48.826Z,6.80
2023-09-03T02:25:17.616Z,8.15
2023-09-03T02:27:47.359Z,7.13
2023-09-03T02:30:17.760Z,7.70
2023-09-03T02:32:47.858Z,9.57
2023-09-03T02:35:16.934Z,6.85
2023-09-03T02:37:45.805Z,7.38
2023-09-03T02:40:15.533Z,7.57
2023-09-03T02:42:45.112Z,7.97
2023-09-03T02:45:25.821Z,8.45
2023-09-03T02:47:55.857Z,8.38
2023-09-03T02:50:24.897Z,9.63
2023-09-03T02:52:53.586Z,9.55
2023-09-03T02:55:22.100Z,8.13
2023-09-03T02:57:52.051Z,8.43
2023-09-03T03:00:20.609Z,7.88
2023-09-03T03:02:51.915Z,7.32
2023-09-03T03:05:21.935Z,9.55
2023-09-03T03:07:50.540Z,9.70
2023-09-03T03:10:19.266Z,9.70
2023-09-03T03:12:48.656Z,10.38
2023-09-03T03:15:19.394Z,8.27
2023-09-03T03:17:49.542Z,9.27
2023-09-03T03:20:21.612Z,9.85
2023-09-03T03:22:51.666Z,10.07
2023-09-03T03:25:20.535Z,8.05
2023-09-03T03:27:49.315Z,8.48
2023-09-03T03:30:18.927Z,10.00
2023-09-03T03:32:47.807Z,12.57
2023-09-03T03:35:16.650Z,10.50
2023-09-03T03:37:45.895Z,10.63
2023-09-03T03:40:16.505Z,13.73
2023-09-03T03:42:45.073Z,9.10
2023-09-03T03:45:14.047Z,11.93
2023-09-03T03:47:42.655Z,8.90
2023-09-03T03:50:12.024Z,11.30
2023-09-03T03:52:42.269Z,9.88
2023-09-03T03:55:12.602Z,8.52
2023-09-03T03:57:43.610Z,9.32
2023-09-03T04:00:13.189Z,9.43
2023-09-03T04:02:41.830Z,11.25
2023-09-03T04:05:10.842Z,11.20
2023-09-03T04:07:39.418Z,9.32
2023-09-03T04:10:08.674Z,9.27
2023-09-03T04:12:38.298Z,8.73
2023-09-03T04:15:10.156Z,10.98
2023-09-03T04:17:39.458Z,9.70
2023-09-03T04:20:09.326Z,9.07
2023-09-03T04:22:39.776Z,11.63
2023-09-03T04:25:09.742Z,8.80
2023-09-03T04:27:40.333Z,9.48
2023-09-03T04:30:12.748Z,10.05
2023-09-03T04:32:41.328Z,9.38
2023-09-03T04:35:10.469Z,8.95
2023-09-03T04:37:39.173Z,9.63
2023-09-03T04:40:10.565Z,8.85
2023-09-03T04:42:40.913Z,13.52
2023-09-03T04:45:11.631Z,8.00
2023-09-03T04:47:40.368Z,8.75
2023-09-03T04:50:11.018Z,9.13
2023-09-03T04:52:41.767Z,8.85
2023-09-03T04:55:11.927Z,7.22
2023-09-03T04:57:40.490Z,9.50
2023-09-03T05:00:12.354Z,7.57
2023-09-03T05:02:41.118Z,8.35
2023-09-03T05:05:10.848Z,7.90
2023-09-03T05:07:40.187Z,11.25
2023-09-03T05:10:10.842Z,6.90
2023-09-03T05:12:42.165Z,5.50
2023-09-03T05:15:14.568Z,6.93
2023-09-03T05:17:44.278Z,6.05
2023-09-03T05:20:12.970Z,7.97
2023-09-03T05:22:41.759Z,6.40
2023-09-03T05:25:11.388Z,8.00
2023-09-03T05:27:40.118Z,5.53
2023-09-03T05:30:12.795Z,5.30
2023-09-03T05:32:41.641Z,9.80
2023-09-03T05:35:11.739Z,7.93
2023-09-03T05:37:42.026Z,9.18
2023-09-03T05:40:12.190Z,7.05
2023-09-03T05:42:40.817Z,10.85
2023-09-03T05:45:10.851Z,7.32
2023-09-03T05:47:41.387Z,7.30
2023-09-03T05:50:10.801Z,6.40
2023-09-03T05:52:39.411Z,8.15
2023-09-03T05:55:08.791Z,6.65
2023-09-03T05:57:38.931Z,5.85
2023-09-03T06:00:08.800Z,6.80
2023-09-03T06:02:38.738Z,5.53
2023-09-03T06:05:10.405Z,6.43
2023-09-03T06:07:38.975Z,6.93
2023-09-03T06:10:08.701Z,7.15
2023-09-03T06:12:37.344Z,9.00
2023-09-03T06:15:10.322Z,8.35
2023-09-03T06:17:39.063Z,5.78
2023-09-03T06:20:11.859Z,9.65
2023-09-03T06:22:40.399Z,8.85
2023-09-03T06:25:09.666Z,9.20
2023-09-03T06:27:38.265Z,8.57
2023-09-03T06:30:08.154Z,8.35
2023-09-03T06:32:37.737Z,7.60
2023-09-03T06:35:09.703Z,7.68
2023-09-03T06:37:38.261Z,6.18
2023-09-03T06:40:08.392Z,8.57
2023-09-03T06:42:37.316Z,8.25
2023-09-03T06:45:06.931Z,7.32
2023-09-03T06:47:35.723Z,8.60
2023-09-03T06:50:05.175Z,8.45
2023-09-03T06:52:35.154Z,7.88
2023-09-03T06:55:04.236Z,5.70
2023-09-03T06:57:35.596Z,6.32
2023-09-03T07:00:07.458Z,4.80
2023-09-03T07:02:36.354Z,4.68
2023-09-03T07:05:05.364Z,7.88
2023-09-03T07:07:38.781Z,5.70
2023-09-03T07:10:08.411Z,8.98
2023-09-03T07:12:36.976Z,5.05
2023-09-03T07:15:07.455Z,5.82
2023-09-03T07:17:36.955Z,5.50
2023-09-03T07:20:06.687Z,6.18
2023-09-03T07:22:36.639Z,5.07
2023-09-03T07:25:05.600Z,6.05
2023-09-03T07:27:35.704Z,8.00
2023-09-03T07:30:04.266Z,6.78
2023-09-03T07:32:33.300Z,15.55
2023-09-03T07:35:02.628Z,7.93
2023-09-03T07:37:34.676Z,6.82
2023-09-03T07:40:31.115Z,6.32
2023-09-03T07:43:03.173Z,5.78
2023-09-03T07:45:31.684Z,12.10
2023-09-03T07:48:02.631Z,6.78
2023-09-03T07:50:32.408Z,6.93
2023-09-03T07:53:02.549Z,8.25
2023-09-03T07:55:32.554Z,7.65
2023-09-03T07:58:01.423Z,7.10
2023-09-03T08:00:30.314Z,6.50
2023-09-03T08:02:59.281Z,4.43
2023-09-03T08:05:30.344Z,5.70
2023-09-03T08:07:59.133Z,5.93
2023-09-03T08:10:27.985Z,4.60
2023-09-03T08:12:57.951Z,5.70
2023-09-03T08:15:37.582Z,5.20
2023-09-03T08:18:10.343Z,7.55
2023-09-03T08:20:42.513Z,7.00
2023-09-03T08:23:13.293Z,7.03
2023-09-03T08:25:46.878Z,4.32
2023-09-03T08:28:17.753Z,7.32
2023-09-03T08:30:48.496Z,7.10
2023-09-03T08:33:17.312Z,6.60
2023-09-03T08:35:49.265Z,6.15
2023-09-03T08:38:17.876Z,7.05
2023-09-03T08:40:46.868Z,5.68
2023-09-03T08:43:23.473Z,5.40
2023-09-03T08:45:57.176Z,4.53
2023-09-03T08:48:25.974Z,4.60
2023-09-03T08:50:54.908Z,4.47
2023-09-03T08:53:26.964Z,4.95
2023-09-03T08:55:58.535Z,6.72
2023-09-03T08:58:28.923Z,5.07
2023-09-03T09:00:58.139Z,6.20
2023-09-03T09:03:31.733Z,5.82
2023-09-03T09:06:11.024Z,3.90
2023-09-03T09:08:50.081Z,4.95
2023-09-03T09:11:21.609Z,6.65
2023-09-03T09:13:58.109Z,4.35
2023-09-03T09:16:26.796Z,5.97
2023-09-03T09:19:00.177Z,7.97
2023-09-03T09:21:38.057Z,5.55
2023-09-03T09:24:08.023Z,7.43
2023-09-03T09:26:37.622Z,6.22
2023-09-03T09:29:08.041Z,5.22
2023-09-03T09:31:37.165Z,6.82
2023-09-03T09:34:14.036Z,6.03
2023-09-03T09:36:55.438Z,7.25
2023-09-03T09:39:26.461Z,5.03
2023-09-03T09:42:08.490Z,3.67
2023-09-03T09:45:00.815Z,7.07
2023-09-03T09:47:29.886Z,3.97
2023-09-03T09:50:01.996Z,5.13
2023-09-03T09:52:37.707Z,3.60
2023-09-03T09:55:07.475Z,3.90
2023-09-03T09:57:36.290Z,3.15
2023-09-03T10:00:07.294Z,4.05
2023-09-03T10:02:39.731Z,3.67
2023-09-03T10:05:12.613Z,2.97
2023-09-03T10:07:42.500Z,4.03
2023-09-03T10:10:11.936Z,3.47
2023-09-03T10:12:41.983Z,3.72
2023-09-03T10:15:16.781Z,3.33
2023-09-03T10:17:55.532Z,3.22
2023-09-03T10:20:32.546Z,2.53
2023-09-03T10:23:03.504Z,3.47
2023-09-03T10:25:40.431Z,4.95
2023-09-03T10:28:29.899Z,3.88
2023-09-03T10:31:04.198Z,4.55
2023-09-03T10:33:36.504Z,3.50
2023-09-03T10:36:19.459Z,3.78
2023-09-03T10:38:50.970Z,3.80
2023-09-03T10:41:26.552Z,2.90
2023-09-03T10:43:56.570Z,3.17
2023-09-03T10:46:35.925Z,3.47
2023-09-03T10:49:04.754Z,5.22
2023-09-03T10:51:44.981Z,5.18
2023-09-03T10:54:18.852Z,2.83
2023-09-03T10:57:23.681Z,3.95
2023-09-03T11:04:11.630Z,5.07
2023-09-03T11:06:41.128Z,3.50
2023-09-03T11:09:25.834Z,6.63
2023-09-03T11:12:02.625Z,4.93
2023-09-03T11:14:36.858Z,3.78
2023-09-03T11:17:18.676Z,3.55
2023-09-03T11:19:48.747Z,2.55
2023-09-03T11:22:20.911Z,3.42
2023-09-03T11:24:49.877Z,3.58
2023-09-03T11:27:20.014Z,3.83
2023-09-03T11:30:05.838Z,3.17
2023-09-03T11:32:40.887Z,8.10
2023-09-03T11:35:11.087Z,5.72
2023-09-03T11:37:45.371Z,4.00
2023-09-03T11:40:17.479Z,4.18
2023-09-03T11:42:53.131Z,3.53
2023-09-03T11:45:25.835Z,4.38
2023-09-03T11:47:55.924Z,5.28
2023-09-03T11:50:28.259Z,3.97
2023-09-03T11:52:58.315Z,3.22
2023-09-03T11:55:55.149Z,4.85
2023-09-03T11:58:33.878Z,6.60
2023-09-03T12:01:05.404Z,5.55
2023-09-03T12:03:40.628Z,2.90
2023-09-03T12:06:13.348Z,5.22
2023-09-03T12:08:45.442Z,6.22
2023-09-03T12:11:33.373Z,3.53
2023-09-03T12:14:04.721Z,3.38
2023-09-03T12:16:51.307Z,4.85
2023-09-03T12:19:29.760Z,4.97
2023-09-03T12:22:10.958Z,2.67
2023-09-03T12:24:40.976Z,3.17
2023-09-03T12:27:10.593Z,3.58
2023-09-03T12:29:52.191Z,3.92
2023-09-03T12:32:34.306Z,4.43
2023-09-03T12:35:03.252Z,3.65
2023-09-03T12:37:42.409Z,4.30
2023-09-03T12:40:14.397Z,4.18
2023-09-03T12:42:43.343Z,3.00
2023-09-03T12:45:14.484Z,2.95
2023-09-03T12:47:44.275Z,7.00
2023-09-03T12:50:13.276Z,3.22
2023-09-03T12:52:43.423Z,3.88
2023-09-03T12:55:13.139Z,4.65
2023-09-03T12:57:41.721Z,6.70
2023-09-03T13:00:11.702Z,7.38
2023-09-03T13:02:40.954Z,10.02
2023-09-03T13:05:11.484Z,7.18
2023-09-03T13:07:40.307Z,4.90
2023-09-03T13:10:13.604Z,4.07
2023-09-03T13:12:42.211Z,5.10
2023-09-03T13:15:11.543Z,6.32
2023-09-03T13:17:40.174Z,3.47
2023-09-03T13:20:10.205Z,2.90
2023-09-03T13:22:38.766Z,3.60
2023-09-03T13:25:11.570Z,4.25
2023-09-03T13:27:43.818Z,4.43
2023-09-03T13:30:13.084Z,5.25
2023-09-03T13:32:47.408Z,3.00
2023-09-03T13:35:16.101Z,19.83
2023-09-03T13:37:44.832Z,30.95
2023-09-03T13:40:14.471Z,37.00
2023-09-03T13:42:44.496Z,16.88
2023-09-03T13:45:15.496Z,5.40
2023-09-03T13:47:44.649Z,7.68
2023-09-03T13:50:13.344Z,21.50
2023-09-03T13:52:42.926Z,6.28
2023-09-03T13:55:12.995Z,10.57
2023-09-03T13:57:41.541Z,10.02
2023-09-03T14:00:13.061Z,6.45
2023-09-03T14:02:41.660Z,6.20
2023-09-03T14:05:10.866Z,5.25
2023-09-03T14:07:39.385Z,3.13
2023-09-03T14:10:09.139Z,8.18
2023-09-03T14:12:38.024Z,12.77
2023-09-03T14:15:08.684Z,9.18
2023-09-03T14:17:38.651Z,4.97
2023-09-03T14:20:08.858Z,4.40
2023-09-03T14:22:38.566Z,5.60
2023-09-03T14:25:07.956Z,6.25
2023-09-03T14:27:36.477Z,10.13
2023-09-03T14:30:05.648Z,5.95
2023-09-03T14:32:35.160Z,6.95
2023-09-03T14:35:05.378Z,8.65
2023-09-03T14:37:33.987Z,7.90
2023-09-03T14:40:02.624Z,5.82
2023-09-03T14:42:32.991Z,8.05
2023-09-03T14:45:01.621Z,15.00
2023-09-03T14:47:32.826Z,10.52
2023-09-03T14:50:01.529Z,21.13
2023-09-03T14:52:33.401Z,14.50
2023-09-03T14:55:01.957Z,10.02
2023-09-03T14:57:33.891Z,9.77
2023-09-03T15:00:02.448Z,8.70
2023-09-03T15:02:34.519Z,6.78
2023-09-03T15:05:03.358Z,8.73
2023-09-03T15:07:34.339Z,8.95
2023-09-03T15:10:03.190Z,9.93
2023-09-03T15:12:32.606Z,6.97
2023-09-03T15:15:01.222Z,6.18
2023-09-03T15:17:29.936Z,15.32
2023-09-03T15:19:58.570Z,7.78
2023-09-03T15:22:27.162Z,21.73
2023-09-03T15:24:57.134Z,9.88
2023-09-03T15:27:25.657Z,9.52
2023-09-03T15:29:54.391Z,11.02
2023-09-03T15:32:22.948Z,5.07
2023-09-03T15:34:51.551Z,10.98
2023-09-03T15:37:20.270Z,9.80
2023-09-03T15:39:53.446Z,5.63
2023-09-03T15:42:24.174Z,8.35
2023-09-03T15:44:52.975Z,12.77
2023-09-03T15:47:21.579Z,8.77
2023-09-03T15:49:52.821Z,9.02
2023-09-03T15:52:21.348Z,9.93
2023-09-03T15:54:49.974Z,7.10
2023-09-03T15:57:21.026Z,7.07
2023-09-03T15:59:51.981Z,7.25
2023-09-03T16:02:20.581Z,9.80
2023-09-03T16:04:52.908Z,8.20
2023-09-03T16:07:22.185Z,6.78
2023-09-03T16:09:51.631Z,7.82
2023-09-03T16:12:44.841Z,8.10
2023-09-03T16:15:15.243Z,6.97
2023-09-03T16:17:43.840Z,6.93
2023-09-03T16:20:15.975Z,6.55
2023-09-03T16:22:44.646Z,7.72
2023-09-03T16:25:13.409Z,7.00
2023-09-03T16:27:42.004Z,5.85
2023-09-03T16:30:11.545Z,6.90
2023-09-03T16:32:43.485Z,9.60
2023-09-03T16:35:12.162Z,8.40
2023-09-03T16:37:40.737Z,9.10
2023-09-03T16:40:11.457Z,8.57
2023-09-03T16:42:40.232Z,11.88
2023-09-03T16:45:10.050Z,7.93
2023-09-03T16:47:38.709Z,9.68
2023-09-03T16:50:09.645Z,15.10
2023-09-03T16:52:38.299Z,12.00
2023-09-03T16:55:07.822Z,14.25
2023-09-03T16:57:38.291Z,11.77
2023-09-03T17:00:09.753Z,17.83
2023-09-03T17:02:38.438Z,12.43
2023-09-03T17:05:09.422Z,11.00
2023-09-03T17:07:38.448Z,11.18
2023-09-03T17:10:08.009Z,8.20
2023-09-03T17:12:36.592Z,12.13
2023-09-03T17:15:05.802Z,11.55
2023-09-03T17:17:35.914Z,8.43
2023-09-03T17:20:10.076Z,10.95
2023-09-03T17:22:38.575Z,13.43
2023-09-03T17:25:07.802Z,9.05
2023-09-03T17:27:36.349Z,11.85
2023-09-03T17:30:05.303Z,9.07
2023-09-03T17:32:34.398Z,9.77
2023-09-03T17:35:03.332Z,7.15
2023-09-03T17:37:33.742Z,12.23
2023-09-03T17:40:02.313Z,9.50
2023-09-03T17:42:35.030Z,10.80
2023-09-03T17:45:03.733Z,16.65
2023-09-03T17:47:35.261Z,11.73
2023-09-03T17:50:04.098Z,9.80
2023-09-03T17:52:36.267Z,10.93
2023-09-03T17:55:05.432Z,18.85
2023-09-03T17:57:35.219Z,16.73
2023-09-03T18:00:04.551Z,15.27
2023-09-03T18:02:41.800Z,19.05
2023-09-03T18:05:18.363Z,10.43
2023-09-03T18:07:48.364Z,19.65
2023-09-03T18:10:17.252Z,15.45
2023-09-03T18:12:47.634Z,17.25
2023-09-03T18:15:16.993Z,13.55
2023-09-03T18:17:47.951Z,16.55
2023-09-03T18:20:17.496Z,16.27
2023-09-03T18:22:47.907Z,12.68
2023-09-03T18:25:17.824Z,17.92
2023-09-03T18:27:47.007Z,36.42
2023-09-03T18:30:15.643Z,21.27
2023-09-03T18:32:44.241Z,23.10
2023-09-03T18:35:13.348Z,33.50
2023-09-03T18:37:42.147Z,28.33
2023-09-03T18:40:12.989Z,53.92
2023-09-03T18:42:41.613Z,21.85
2023-09-03T18:45:10.499Z,23.00
2023-09-03T18:47:40.738Z,29.45
2023-09-03T18:50:10.056Z,25.58
2023-09-03T18:52:38.840Z,18.75
2023-09-03T18:55:12.076Z,21.55
2023-09-03T18:57:40.798Z,30.67
2023-09-03T19:00:11.527Z,19.95
2023-09-03T19:02:40.176Z,45.25
2023-09-03T19:05:09.334Z,76.43
2023-09-03T19:07:38.703Z,53.78
2023-09-03T19:10:08.537Z,29.55
2023-09-03T19:12:40.211Z,23.33
2023-09-03T19:15:10.314Z,15.40
2023-09-03T19:17:38.900Z,15.77
2023-09-03T19:20:08.905Z,17.35
2023-09-03T19:22:38.206Z,16.08
2023-09-03T19:25:07.535Z,18.33
2023-09-03T19:27:38.583Z,22.17
2023-09-03T19:30:11.755Z,20.15
2023-09-03T19:32:40.370Z,20.00
2023-09-03T19:35:09.979Z,15.38
2023-09-03T19:37:38.586Z,15.05
2023-09-03T19:40:10.825Z,21.80
2023-09-03T19:42:53.079Z,23.55
2023-09-03T19:45:25.586Z,27.13
2023-09-03T19:47:54.340Z,16.58
2023-09-03T19:50:23.429Z,19.55
2023-09-03T19:52:52.517Z,18.75
2023-09-03T19:55:21.750Z,15.35
2023-09-03T19:57:51.767Z,19.02
2023-09-03T20:03:02.694Z,15.02
2023-09-03T20:05:31.399Z,18.52
2023-09-03T20:08:00.063Z,44.08
2023-09-03T20:10:28.764Z,16.77
2023-09-03T20:13:00.058Z,14.43
2023-09-03T20:15:28.718Z,19.60
2023-09-03T20:18:02.948Z,24.27
2023-09-03T20:20:34.110Z,20.50
2023-09-03T20:23:02.975Z,17.92
2023-09-03T20:25:31.842Z,21.90
2023-09-03T20:37:01.892Z,19.65
2023-09-03T20:49:37.843Z,22.75
2023-09-03T20:56:23.555Z,22.05
2023-09-03T20:59:23.783Z,21.40
2023-09-03T21:05:43.551Z,26.33
2023-09-03T21:11:34.169Z,27.25
2023-09-03T21:16:34.706Z,20.85
2023-09-03T21:19:09.344Z,20.70
2023-09-03T21:21:54.775Z,25.15
2023-09-03T21:24:23.772Z,26.25
2023-09-03T21:26:52.492Z,23.02
2023-09-03T21:29:21.858Z,23.13
2023-09-03T21:31:50.683Z,16.55
2023-09-03T21:34:29.659Z,23.63
2023-09-03T21:37:04.564Z,27.05
2023-09-03T21:39:38.682Z,30.30
2023-09-03T21:42:09.667Z,21.95
2023-09-03T21:44:40.856Z,26.08
2023-09-03T21:47:11.688Z,25.65
2023-09-03T21:49:46.773Z,20.15
2023-09-03T21:52:31.761Z,20.75
2023-09-03T21:55:12.727Z,20.65
2023-09-03T21:57:51.441Z,26.33
2023-09-03T22:00:21.890Z,29.42
2023-09-03T22:49:30.079Z,24.45
2023-09-03T22:52:02.563Z,27.92
2023-09-03T22:54:34.797Z,28.10
2023-09-03T22:57:03.415Z,26.55
2023-09-03T22:59:36.485Z,24.48
2023-09-03T23:02:05.956Z,17.95
2023-09-03T23:04:37.952Z,27.08
2023-09-03T23:07:14.783Z,25.70
2023-09-03T23:09:44.245Z,20.88
2023-09-03T23:12:13.765Z,24.42
2023-09-03T23:14:42.335Z,23.13
2023-09-03T23:17:14.152Z,23.88
2023-09-03T23:19:47.665Z,24.92
2023-09-03T23:22:17.421Z,26.52
2023-09-03T23:24:46.598Z,18.98
2023-09-03T23:27:15.579Z,22.15
2023-09-03T23:29:46.757Z,20.90
2023-09-03T23:32:17.058Z,24.88
2023-09-03T23:34:52.365Z,21.48
2023-09-03T23:42:04.388Z,24.13
2023-09-03T23:45:31.062Z,17.45
2023-09-03T23:48:52.073Z,18.33
2023-09-03T23:51:34.505Z,21.33
2023-09-03T23:54:05.300Z,17.08
2023-09-03T23:56:34.430Z,17.33
2023-09-03T23:59:05.368Z,24.48
